createdAt,value
2023-05-15T00:01:08.324Z,21.33
2023-05-15T00:03:35.895Z,21.27
2023-05-15T00:06:03.164Z,21.20
2023-05-15T00:08:30.137Z,21.15
2023-05-15T00:11:01.668Z,21.15
2023-05-15T00:13:29.281Z,21.12
2023-05-15T00:15:56.770Z,21.10
2023-05-15T00:18:24.047Z,21.05
2023-05-15T00:20:51.091Z,21.00
2023-05-15T00:23:18.247Z,20.97
2023-05-15T00:25:45.273Z,20.95
2023-05-15T00:28:12.624Z,20.92
2023-05-15T00:30:39.709Z,20.86
2023-05-15T00:33:07.395Z,20.79
2023-05-15T00:35:34.420Z,20.76
2023-05-15T00:38:01.470Z,20.72
2023-05-15T00:40:29.305Z,20.57
2023-05-15T00:42:56.395Z,20.56
2023-05-15T00:45:24.082Z,20.54
2023-05-15T00:47:51.455Z,20.53
2023-05-15T00:50:18.620Z,20.50
2023-05-15T00:52:46.777Z,20.48
2023-05-15T00:55:13.957Z,20.50
2023-05-15T00:57:42.580Z,20.43
2023-05-15T01:00:10.550Z,20.37
2023-05-15T01:02:37.968Z,20.33
2023-05-15T01:05:09.286Z,20.30
2023-05-15T01:07:41.535Z,20.26
2023-05-15T01:10:08.944Z,20.28
2023-05-15T01:12:36.027Z,20.26
2023-05-15T01:15:03.278Z,20.17
2023-05-15T01:17:30.700Z,20.09
2023-05-15T01:19:58.293Z,20.05
2023-05-15T01:23:04.366Z,19.97
2023-05-15T01:25:54.118Z,19.95
2023-05-15T01:28:24.280Z,19.89
2023-05-15T01:30:51.424Z,19.83
2023-05-15T01:33:21.149Z,19.86
2023-05-15T01:35:59.483Z,19.82
2023-05-15T01:38:55.989Z,19.73
2023-05-15T01:41:23.300Z,19.74
2023-05-15T01:43:55.769Z,19.69
2023-05-15T01:46:23.485Z,19.65
2023-05-15T01:48:51.199Z,19.63
2023-05-15T01:51:19.296Z,19.61
2023-05-15T01:53:46.371Z,19.52
2023-05-15T01:56:14.329Z,19.45
2023-05-15T01:58:41.476Z,19.42
2023-05-15T02:01:08.645Z,19.36
2023-05-15T02:03:36.585Z,19.28
2023-05-15T02:06:03.908Z,19.25
2023-05-15T02:08:31.285Z,19.22
2023-05-15T02:10:58.688Z,19.16
2023-05-15T02:13:25.875Z,19.09
2023-05-15T02:15:53.291Z,19.04
2023-05-15T02:18:20.799Z,19.00
2023-05-15T02:20:47.865Z,18.98
2023-05-15T02:23:15.796Z,18.97
2023-05-15T02:25:54.710Z,18.96
2023-05-15T02:28:31.029Z,19.01
2023-05-15T02:31:04.041Z,19.00
2023-05-15T02:33:51.936Z,18.98
2023-05-15T02:36:21.319Z,19.03
2023-05-15T02:38:53.809Z,19.04
2023-05-15T02:41:22.066Z,19.04
2023-05-15T02:43:50.600Z,19.08
2023-05-15T02:46:18.792Z,19.10
2023-05-15T02:48:46.424Z,19.09
2023-05-15T02:51:13.520Z,19.10
2023-05-15T02:53:41.372Z,19.12
2023-05-15T02:56:08.910Z,19.11
2023-05-15T02:58:35.987Z,19.13
2023-05-15T03:01:04.770Z,19.15
2023-05-15T03:03:32.045Z,19.18
2023-05-15T03:06:01.143Z,19.20
2023-05-15T03:08:28.645Z,19.26
2023-05-15T03:10:56.083Z,19.27
2023-05-15T03:13:23.421Z,19.28
2023-05-15T03:15:50.647Z,19.35
2023-05-15T03:18:19.191Z,19.39
2023-05-15T03:20:47.716Z,19.44
2023-05-15T03:23:14.790Z,19.48
2023-05-15T03:25:42.148Z,19.51
2023-05-15T03:28:09.220Z,19.54
2023-05-15T03:30:36.279Z,19.59
2023-05-15T03:33:07.057Z,19.68
2023-05-15T03:35:34.194Z,19.74
2023-05-15T03:38:02.435Z,19.80
2023-05-15T03:40:29.605Z,19.87
2023-05-15T03:42:58.478Z,19.63
2023-05-15T03:45:26.120Z,19.65
2023-05-15T03:47:53.362Z,19.99
2023-05-15T03:50:20.730Z,20.19
2023-05-15T03:52:47.931Z,20.12
2023-05-15T03:55:15.016Z,20.08
2023-05-15T03:57:41.989Z,20.40
2023-05-15T04:00:11.193Z,20.56
2023-05-15T04:02:41.492Z,20.67
2023-05-15T04:05:09.262Z,20.79
2023-05-15T04:07:36.698Z,20.90
2023-05-15T04:10:04.325Z,20.97
2023-05-15T04:12:32.371Z,21.03
2023-05-15T04:15:00.553Z,21.14
2023-05-15T04:17:27.695Z,21.17
2023-05-15T04:19:54.731Z,21.27
2023-05-15T04:22:21.732Z,21.40
2023-05-15T04:24:48.853Z,21.54
2023-05-15T04:27:16.316Z,21.66
2023-05-15T04:29:43.367Z,21.83
2023-05-15T04:32:10.759Z,21.97
2023-05-15T04:34:37.916Z,22.11
2023-05-15T04:37:05.066Z,22.28
2023-05-15T04:39:32.657Z,22.40
2023-05-15T04:41:59.736Z,22.52
2023-05-15T04:44:26.962Z,22.62
2023-05-15T04:46:54.087Z,22.72
2023-05-15T04:49:21.161Z,22.84
2023-05-15T04:51:48.681Z,23.00
2023-05-15T04:54:15.922Z,23.10
2023-05-15T04:56:43.000Z,23.16
2023-05-15T04:59:11.165Z,23.24
2023-05-15T05:01:38.413Z,23.36
2023-05-15T05:04:05.991Z,23.53
2023-05-15T05:06:33.147Z,23.65
2023-05-15T05:09:00.199Z,23.81
2023-05-15T05:11:27.277Z,23.92
2023-05-15T05:13:54.920Z,24.09
2023-05-15T05:16:22.785Z,24.20
2023-05-15T05:18:50.800Z,24.28
2023-05-15T05:21:17.911Z,24.39
2023-05-15T05:23:45.038Z,24.50
2023-05-15T05:26:12.088Z,24.61
2023-05-15T05:28:39.518Z,24.75
2023-05-15T05:31:07.396Z,24.88
2023-05-15T05:33:34.828Z,25.02
2023-05-15T05:36:01.919Z,25.17
2023-05-15T05:38:29.046Z,25.19
2023-05-15T05:40:56.243Z,25.27
2023-05-15T05:43:23.300Z,25.38
2023-05-15T05:45:50.582Z,25.48
2023-05-15T05:48:17.968Z,25.52
2023-05-15T05:50:45.112Z,25.67
2023-05-15T05:53:12.551Z,25.74
2023-05-15T05:55:39.567Z,25.77
2023-05-15T05:58:11.793Z,25.83
2023-05-15T06:00:45.419Z,25.92
2023-05-15T06:03:12.491Z,26.00
2023-05-15T06:05:39.697Z,26.05
2023-05-15T06:08:07.441Z,26.14
2023-05-15T06:10:34.746Z,26.24
2023-05-15T06:13:01.813Z,26.42
2023-05-15T06:15:28.928Z,26.51
2023-05-15T06:17:56.752Z,26.56
2023-05-15T06:20:24.070Z,26.63
2023-05-15T06:22:51.455Z,26.74
2023-05-15T06:25:19.004Z,26.77
2023-05-15T06:27:46.276Z,26.89
2023-05-15T06:30:14.034Z,26.99
2023-05-15T06:32:42.051Z,27.06
2023-05-15T06:35:10.161Z,27.10
2023-05-15T06:37:37.443Z,27.17
2023-05-15T06:40:05.766Z,27.24
2023-05-15T06:42:33.385Z,27.30
2023-05-15T06:45:00.947Z,27.38
2023-05-15T06:47:28.156Z,27.47
2023-05-15T06:49:55.785Z,27.53
2023-05-15T06:52:23.012Z,27.59
2023-05-15T06:54:50.194Z,27.77
2023-05-15T06:57:17.864Z,27.88
2023-05-15T06:59:45.143Z,28.01
2023-05-15T07:02:12.368Z,28.15
2023-05-15T07:04:39.517Z,28.27
2023-05-15T07:07:07.698Z,28.32
2023-05-15T07:09:35.645Z,28.32
2023-05-15T07:12:03.809Z,28.38
2023-05-15T07:14:31.333Z,28.45
2023-05-15T07:16:58.471Z,28.55
2023-05-15T07:19:25.895Z,28.58
2023-05-15T07:21:53.246Z,28.64
2023-05-15T07:24:20.632Z,28.76
2023-05-15T07:26:58.031Z,28.89
2023-05-15T07:29:26.351Z,29.02
2023-05-15T07:31:53.912Z,29.11
2023-05-15T07:34:21.525Z,29.18
2023-05-15T07:36:48.652Z,29.29
2023-05-15T07:39:16.146Z,29.39
2023-05-15T07:41:43.234Z,29.44
2023-05-15T07:44:10.877Z,29.50
2023-05-15T07:46:39.458Z,29.57
2023-05-15T07:49:06.972Z,29.64
2023-05-15T07:51:34.111Z,29.60
2023-05-15T07:54:01.189Z,29.64
2023-05-15T07:56:28.812Z,29.71
2023-05-15T07:58:57.060Z,29.80
2023-05-15T08:01:24.590Z,29.86
2023-05-15T08:03:51.821Z,29.97
2023-05-15T08:06:19.087Z,30.04
2023-05-15T08:08:46.320Z,30.12
2023-05-15T08:11:13.448Z,30.15
2023-05-15T08:13:40.536Z,30.19
2023-05-15T08:16:07.673Z,30.25
2023-05-15T08:18:34.769Z,30.30
2023-05-15T08:21:02.995Z,30.34
2023-05-15T08:23:31.736Z,30.41
2023-05-15T08:25:59.460Z,30.44
2023-05-15T08:28:26.854Z,30.50
2023-05-15T08:30:53.943Z,30.50
2023-05-15T08:33:21.324Z,30.39
2023-05-15T08:35:48.467Z,30.40
2023-05-15T08:38:15.547Z,30.47
2023-05-15T08:40:42.669Z,30.51
2023-05-15T08:43:15.252Z,30.55
2023-05-15T08:45:42.915Z,30.60
2023-05-15T08:48:11.654Z,30.64
2023-05-15T08:50:39.352Z,30.72
2023-05-15T08:53:06.475Z,30.82
2023-05-15T08:55:33.650Z,30.87
2023-05-15T08:58:00.912Z,30.94
2023-05-15T09:00:28.233Z,31.06
2023-05-15T09:02:55.363Z,31.20
2023-05-15T09:05:22.678Z,31.23
2023-05-15T09:07:50.536Z,31.29
2023-05-15T09:10:17.918Z,31.28
2023-05-15T09:15:34.749Z,30.34
2023-05-15T09:18:01.937Z,31.04
2023-05-15T09:20:33.744Z,30.99
2023-05-15T09:23:02.771Z,31.03
2023-05-15T09:25:43.027Z,31.04
2023-05-15T09:28:11.278Z,31.15
2023-05-15T09:30:39.557Z,31.14
2023-05-15T09:33:06.608Z,31.10
2023-05-15T09:35:35.697Z,31.20
2023-05-15T09:38:08.063Z,31.19
2023-05-15T09:40:35.157Z,31.20
2023-05-15T09:43:02.766Z,31.31
2023-05-15T09:45:30.475Z,31.42
2023-05-15T09:48:00.152Z,31.50
2023-05-15T09:50:37.775Z,31.49
2023-05-15T09:53:05.643Z,31.47
2023-05-15T09:55:33.963Z,31.54
2023-05-15T09:58:06.588Z,31.47
2023-05-15T10:00:34.482Z,31.48
2023-05-15T10:03:03.387Z,31.49
2023-05-15T10:05:42.540Z,31.59
2023-05-15T10:08:10.732Z,31.74
2023-05-15T10:10:37.896Z,31.92
2023-05-15T10:13:06.168Z,32.01
2023-05-15T10:15:33.449Z,32.03
2023-05-15T10:18:01.054Z,32.07
2023-05-15T10:20:28.280Z,32.08
2023-05-15T10:22:56.523Z,32.08
2023-05-15T10:25:35.623Z,31.96
2023-05-15T10:28:03.530Z,31.97
2023-05-15T10:30:31.682Z,31.99
2023-05-15T10:32:58.747Z,32.01
2023-05-15T10:35:26.055Z,32.05
2023-05-15T10:37:53.469Z,31.94
2023-05-15T10:40:20.807Z,31.82
2023-05-15T10:42:47.952Z,31.76
2023-05-15T10:45:15.133Z,31.73
2023-05-15T10:47:43.318Z,31.59
2023-05-15T10:50:11.718Z,31.44
2023-05-15T10:52:39.365Z,31.37
2023-05-15T10:55:07.780Z,31.27
2023-05-15T10:57:35.108Z,31.26
2023-05-15T11:00:02.601Z,31.30
2023-05-15T11:02:31.655Z,31.37
2023-05-15T11:05:03.787Z,31.54
2023-05-15T11:07:31.063Z,31.63
2023-05-15T11:09:58.428Z,31.65
2023-05-15T11:12:25.784Z,31.67
2023-05-15T11:14:55.832Z,31.64
2023-05-15T11:17:23.565Z,31.54
2023-05-15T11:19:51.010Z,31.48
2023-05-15T11:22:27.881Z,31.53
2023-05-15T11:25:16.831Z,31.60
2023-05-15T11:27:47.353Z,31.62
2023-05-15T11:30:20.903Z,31.62
2023-05-15T11:32:47.990Z,31.67
2023-05-15T11:35:46.335Z,31.85
2023-05-15T11:38:24.841Z,32.13
2023-05-15T11:41:04.306Z,32.26
2023-05-15T11:43:37.499Z,32.30
2023-05-15T11:46:08.746Z,32.28
2023-05-15T11:48:40.559Z,32.32
2023-05-15T11:51:21.792Z,32.33
2023-05-15T11:53:50.115Z,32.31
2023-05-15T11:56:21.829Z,32.26
2023-05-15T11:58:50.167Z,32.19
2023-05-15T12:01:17.360Z,32.12
2023-05-15T12:03:46.822Z,32.10
2023-05-15T12:06:14.191Z,32.14
2023-05-15T12:08:42.372Z,32.24
2023-05-15T12:11:09.681Z,32.43
2023-05-15T12:13:36.722Z,32.62
2023-05-15T12:16:04.380Z,32.79
2023-05-15T12:18:32.682Z,32.87
2023-05-15T12:20:59.991Z,32.94
2023-05-15T12:23:28.660Z,32.99
2023-05-15T12:26:00.830Z,32.99
2023-05-15T12:28:28.923Z,32.95
2023-05-15T12:30:56.144Z,32.92
2023-05-15T12:33:23.838Z,32.87
2023-05-15T12:35:54.934Z,32.85
2023-05-15T12:38:22.982Z,32.78
2023-05-15T12:40:53.750Z,32.60
2023-05-15T12:43:23.393Z,32.53
2023-05-15T12:45:52.703Z,32.47
2023-05-15T12:48:20.370Z,32.39
2023-05-15T12:50:47.462Z,32.23
2023-05-15T12:53:16.050Z,32.21
2023-05-15T12:55:44.919Z,32.45
2023-05-15T12:58:12.688Z,32.49
2023-05-15T13:00:42.013Z,32.43
2023-05-15T13:03:10.793Z,32.22
2023-05-15T13:05:38.412Z,32.03
2023-05-15T13:08:07.498Z,31.85
2023-05-15T13:10:36.788Z,32.12
2023-05-15T13:13:04.226Z,32.62
2023-05-15T13:15:38.965Z,32.79
2023-05-15T13:18:10.552Z,33.03
2023-05-15T13:20:42.124Z,33.24
2023-05-15T13:23:10.957Z,33.38
2023-05-15T13:25:38.060Z,33.47
2023-05-15T13:28:06.372Z,33.59
2023-05-15T13:30:34.474Z,33.73
2023-05-15T13:33:02.156Z,33.82
2023-05-15T13:35:29.451Z,33.97
2023-05-15T13:37:57.062Z,34.14
2023-05-15T13:40:24.187Z,34.17
2023-05-15T13:42:51.476Z,34.23
2023-05-15T13:45:18.780Z,34.22
2023-05-15T13:47:46.045Z,34.14
2023-05-15T13:50:14.188Z,34.16
2023-05-15T13:52:41.842Z,34.25
2023-05-15T13:55:12.108Z,34.27
2023-05-15T13:57:39.711Z,34.34
2023-05-15T14:00:10.171Z,34.27
2023-05-15T14:02:37.298Z,34.18
2023-05-15T14:05:05.399Z,33.26
2023-05-15T14:07:32.599Z,33.36
2023-05-15T14:09:59.629Z,33.30
2023-05-15T14:12:26.855Z,33.18
2023-05-15T14:14:56.182Z,33.13
2023-05-15T14:17:23.721Z,33.05
2023-05-15T14:19:51.431Z,33.00
2023-05-15T14:22:18.564Z,33.24
2023-05-15T14:24:45.762Z,32.89
2023-05-15T14:27:13.324Z,32.25
2023-05-15T14:29:40.426Z,32.07
2023-05-15T14:32:09.069Z,32.36
2023-05-15T14:34:36.154Z,32.67
2023-05-15T14:37:03.320Z,32.15
2023-05-15T14:39:30.445Z,31.94
2023-05-15T14:41:57.517Z,31.96
2023-05-15T14:44:24.618Z,32.06
2023-05-15T14:47:08.522Z,32.15
2023-05-15T14:49:36.692Z,32.25
2023-05-15T14:52:05.170Z,32.26
2023-05-15T14:54:32.399Z,32.32
2023-05-15T14:56:59.677Z,32.34
2023-05-15T14:59:27.833Z,32.40
2023-05-15T15:01:55.213Z,32.51
2023-05-15T15:04:22.392Z,32.48
2023-05-15T15:06:49.573Z,32.43
2023-05-15T15:09:18.258Z,32.52
2023-05-15T15:11:47.379Z,32.53
2023-05-15T15:14:14.449Z,32.64
2023-05-15T15:16:41.908Z,32.71
2023-05-15T15:19:09.408Z,32.73
2023-05-15T15:21:37.722Z,32.54
2023-05-15T15:24:05.191Z,32.65
2023-05-15T15:26:32.391Z,32.53
2023-05-15T15:29:01.148Z,32.45
2023-05-15T15:31:32.225Z,32.41
2023-05-15T15:33:59.788Z,32.34
2023-05-15T15:36:26.965Z,32.15
2023-05-15T15:38:54.725Z,32.00
2023-05-15T15:41:21.882Z,31.89
2023-05-15T15:43:49.091Z,31.79
2023-05-15T15:46:16.265Z,31.66
2023-05-15T15:48:43.407Z,31.56
2023-05-15T15:51:10.797Z,31.46
2023-05-15T15:53:39.391Z,31.33
2023-05-15T15:56:07.654Z,31.21
2023-05-15T15:58:34.677Z,31.14
2023-05-15T16:01:02.928Z,31.12
2023-05-15T16:03:31.119Z,31.05
2023-05-15T16:05:59.959Z,30.92
2023-05-15T16:08:27.877Z,30.81
2023-05-15T16:10:55.270Z,30.72
2023-05-15T16:13:22.260Z,30.62
2023-05-15T16:15:50.001Z,30.51
2023-05-15T16:18:17.028Z,30.41
2023-05-15T16:20:44.128Z,30.36
2023-05-15T16:23:14.594Z,30.24
2023-05-15T16:25:44.184Z,30.15
2023-05-15T16:28:12.258Z,30.09
2023-05-15T16:30:48.950Z,29.98
2023-05-15T16:33:18.024Z,29.87
2023-05-15T16:35:46.123Z,29.77
2023-05-15T16:38:13.723Z,29.59
2023-05-15T16:40:40.836Z,29.47
2023-05-15T16:43:08.393Z,29.35
2023-05-15T16:45:35.692Z,29.24
2023-05-15T16:48:02.869Z,29.20
2023-05-15T16:50:31.452Z,29.03
2023-05-15T16:52:59.118Z,28.95
2023-05-15T16:55:26.284Z,28.91
2023-05-15T16:57:53.719Z,28.80
2023-05-15T17:00:21.626Z,28.65
2023-05-15T17:02:49.445Z,28.56
2023-05-15T17:05:16.880Z,28.46
2023-05-15T17:07:44.233Z,28.34
2023-05-15T17:10:12.053Z,28.28
2023-05-15T17:12:39.357Z,28.19
2023-05-15T17:15:07.511Z,28.13
2023-05-15T17:17:34.855Z,28.05
2023-05-15T17:20:03.154Z,27.98
2023-05-15T17:22:30.629Z,27.92
2023-05-15T17:24:57.700Z,27.83
2023-05-15T17:27:24.863Z,27.74
2023-05-15T17:29:53.279Z,27.64
2023-05-15T17:32:20.587Z,27.56
2023-05-15T17:34:47.975Z,27.45
2023-05-15T17:37:15.108Z,27.36
2023-05-15T17:39:42.792Z,27.28
2023-05-15T17:42:10.436Z,27.20
2023-05-15T17:44:37.455Z,27.08
2023-05-15T17:47:05.094Z,27.00
2023-05-15T17:49:34.427Z,26.94
2023-05-15T17:52:01.677Z,26.86
2023-05-15T17:54:28.770Z,26.76
2023-05-15T17:56:55.971Z,26.64
2023-05-15T17:59:23.274Z,26.51
2023-05-15T18:01:50.497Z,26.42
2023-05-15T18:04:17.933Z,26.47
2023-05-15T18:06:45.337Z,26.21
2023-05-15T18:09:12.509Z,26.06
2023-05-15T18:11:39.663Z,25.95
2023-05-15T18:14:06.831Z,25.91
2023-05-15T18:16:34.094Z,25.93
2023-05-15T18:19:01.736Z,25.88
2023-05-15T18:21:28.827Z,25.71
2023-05-15T18:23:56.139Z,25.78
2023-05-15T18:26:23.799Z,25.82
2023-05-15T18:28:50.958Z,25.82
2023-05-15T18:31:18.095Z,25.84
2023-05-15T18:33:45.572Z,25.66
2023-05-15T18:36:12.672Z,25.56
2023-05-15T18:38:39.786Z,25.51
2023-05-15T18:41:06.926Z,25.49
2023-05-15T18:43:34.054Z,25.45
2023-05-15T18:46:01.277Z,25.40
2023-05-15T18:48:28.435Z,25.36
2023-05-15T18:50:56.018Z,25.31
2023-05-15T18:53:23.266Z,25.25
2023-05-15T18:55:50.532Z,25.22
2023-05-15T18:58:17.731Z,25.17
2023-05-15T19:00:44.978Z,25.13
2023-05-15T19:03:12.298Z,25.07
2023-05-15T19:05:39.672Z,25.00
2023-05-15T19:08:07.332Z,24.98
2023-05-15T19:10:34.473Z,24.92
2023-05-15T19:13:01.710Z,24.87
2023-05-15T19:15:28.873Z,24.84
2023-05-15T19:17:56.303Z,24.82
2023-05-15T19:20:23.596Z,24.82
2023-05-15T19:22:50.817Z,24.80
2023-05-15T19:25:17.991Z,24.75
2023-05-15T19:27:45.109Z,24.69
2023-05-15T19:30:12.624Z,24.69
2023-05-15T19:32:39.884Z,24.66
2023-05-15T19:35:07.438Z,24.64
2023-05-15T19:37:34.728Z,24.59
2023-05-15T19:40:02.118Z,24.55
2023-05-15T19:42:29.236Z,24.55
2023-05-15T19:44:56.545Z,24.51
2023-05-15T19:47:23.693Z,24.48
2023-05-15T19:49:50.852Z,24.30
2023-05-15T19:52:19.364Z,24.26
2023-05-15T19:54:46.943Z,24.23
2023-05-15T19:57:13.991Z,24.15
2023-05-15T19:59:41.103Z,24.16
2023-05-15T20:02:10.748Z,24.13
2023-05-15T20:04:37.938Z,24.13
2023-05-15T20:07:05.275Z,24.13
2023-05-15T20:09:32.456Z,24.05
2023-05-15T20:11:59.552Z,24.05
2023-05-15T20:14:26.588Z,24.07
2023-05-15T20:16:53.921Z,24.06
2023-05-15T20:19:24.971Z,24.01
2023-05-15T20:21:52.353Z,23.99
2023-05-15T20:24:19.526Z,23.96
2023-05-15T20:26:46.687Z,23.95
2023-05-15T20:29:13.824Z,23.95
2023-05-15T20:31:41.180Z,23.90
2023-05-15T20:34:08.614Z,23.86
2023-05-15T20:36:38.991Z,23.79
2023-05-15T20:39:07.600Z,23.88
2023-05-15T20:41:34.976Z,23.90
2023-05-15T20:44:02.248Z,24.16
2023-05-15T20:46:30.126Z,23.86
2023-05-15T20:48:57.892Z,23.77
2023-05-15T20:51:25.266Z,23.76
2023-05-15T20:53:52.439Z,23.74
2023-05-15T20:56:19.854Z,23.70
2023-05-15T20:58:46.875Z,23.64
2023-05-15T21:01:13.994Z,23.58
2023-05-15T21:03:41.504Z,23.52
2023-05-15T21:06:08.975Z,23.50
2023-05-15T21:08:36.565Z,23.45
2023-05-15T21:11:04.096Z,23.42
2023-05-15T21:13:31.121Z,23.39
2023-05-15T21:15:58.282Z,23.32
2023-05-15T21:18:25.435Z,23.27
2023-05-15T21:20:53.142Z,23.23
2023-05-15T21:23:21.460Z,23.18
2023-05-15T21:25:48.483Z,23.09
2023-05-15T21:28:15.987Z,23.01
2023-05-15T21:32:16.351Z,22.23
2023-05-15T21:34:43.395Z,22.86
2023-05-15T21:37:10.650Z,22.92
2023-05-15T21:39:37.786Z,22.89
2023-05-15T21:42:05.501Z,22.86
2023-05-15T21:44:32.842Z,22.84
2023-05-15T21:46:59.899Z,22.85
2023-05-15T21:49:26.976Z,22.83
2023-05-15T21:51:54.080Z,22.76
2023-05-15T21:54:21.406Z,22.71
2023-05-15T21:56:48.612Z,22.69
2023-05-15T21:59:15.721Z,22.69
2023-05-15T22:01:43.008Z,22.67
2023-05-15T22:04:10.377Z,22.61
2023-05-15T22:06:37.526Z,22.60
2023-05-15T22:09:04.988Z,22.56
2023-05-15T22:11:32.037Z,22.54
2023-05-15T22:13:59.671Z,22.50
2023-05-15T22:16:26.930Z,22.49
2023-05-15T22:18:54.955Z,22.40
2023-05-15T22:21:22.072Z,22.34
2023-05-15T22:23:49.167Z,22.35
2023-05-15T22:26:16.397Z,22.35
2023-05-15T22:28:44.123Z,22.33
2023-05-15T22:31:11.237Z,22.30
2023-05-15T22:33:38.398Z,22.27
2023-05-15T22:36:06.225Z,22.25
2023-05-15T22:38:33.123Z,22.25
2023-05-15T22:41:00.339Z,22.26
2023-05-15T22:43:27.456Z,22.20
2023-05-15T22:45:54.658Z,22.18
2023-05-15T22:48:23.246Z,22.18
2023-05-15T22:50:50.336Z,22.13
2023-05-15T22:53:17.463Z,22.10
2023-05-15T22:55:45.021Z,22.09
2023-05-15T22:58:12.693Z,22.09
2023-05-15T23:00:39.818Z,22.13
2023-05-15T23:03:07.209Z,22.11
2023-05-15T23:05:34.402Z,22.06
2023-05-15T23:08:01.421Z,22.03
2023-05-15T23:10:28.895Z,22.08
2023-05-15T23:12:56.185Z,21.99
2023-05-15T23:15:23.216Z,21.88
2023-05-15T23:17:50.437Z,21.85
2023-05-15T23:20:18.268Z,21.81
2023-05-15T23:22:45.400Z,21.77
2023-05-15T23:25:12.406Z,21.75
2023-05-15T23:27:39.383Z,21.80
2023-05-15T23:30:07.209Z,21.77
2023-05-15T23:32:34.270Z,21.77
2023-05-15T23:35:01.426Z,21.73
2023-05-15T23:37:28.633Z,21.67
2023-05-15T23:39:55.713Z,21.66
2023-05-15T23:42:23.226Z,21.59
2023-05-15T23:44:50.448Z,21.46
2023-05-15T23:47:17.758Z,21.41
2023-05-15T23:49:44.857Z,21.37
2023-05-15T23:52:12.116Z,21.38
2023-05-15T23:54:40.118Z,21.50
2023-05-15T23:57:07.152Z,21.51
2023-05-15T23:59:34.295Z,21.49
